sensor_id;sensor_type;location;lat;lon;timestamp;P1;durP1;ratioP1;P2;durP2;ratioP2
56173;SDS011;42058;52.308;20.924;2022-07-23T00:01:02;9.93;;;6.73;;
56173;SDS011;42058;52.308;20.924;2022-07-23T00:03:28;9.00;;;7.07;;
56173;SDS011;42058;52.308;20.924;2022-07-23T00:05:55;7.70;;;6.73;;
56173;SDS011;42058;52.308;20.924;2022-07-23T00:08:21;8.10;;;6.57;;
56173;SDS011;42058;52.308;20.924;2022-07-23T00:10:47;11.80;;;7.30;;
56173;SDS011;42058;52.308;20.924;2022-07-23T00:13:14;10.80;;;7.60;;
56173;SDS011;42058;52.308;20.924;2022-07-23T00:15:40;11.33;;;7.43;;
56173;SDS011;42058;52.308;20.924;2022-07-23T00:18:06;10.23;;;7.20;;
56173;SDS011;42058;52.308;20.924;2022-07-23T00:20:32;7.13;;;6.33;;
56173;SDS011;42058;52.308;20.924;2022-07-23T00:22:58;7.90;;;7.17;;
56173;SDS011;42058;52.308;20.924;2022-07-23T00:25:24;10.60;;;7.10;;
56173;SDS011;42058;52.308;20.924;2022-07-23T00:27:52;10.30;;;7.07;;
56173;SDS011;42058;52.308;20.924;2022-07-23T00:30:18;8.70;;;6.83;;
56173;SDS011;42058;52.308;20.924;2022-07-23T00:32:52;8.87;;;7.00;;
56173;SDS011;42058;52.308;20.924;2022-07-23T00:35:23;9.13;;;6.40;;
56173;SDS011;42058;52.308;20.924;2022-07-23T00:37:55;7.57;;;6.70;;
56173;SDS011;42058;52.308;20.924;2022-07-23T00:40:23;10.20;;;7.07;;
56173;SDS011;42058;52.308;20.924;2022-07-23T00:42:50;9.33;;;7.10;;
56173;SDS011;42058;52.308;20.924;2022-07-23T00:45:16;9.10;;;7.10;;
56173;SDS011;42058;52.308;20.924;2022-07-23T00:47:43;10.67;;;7.10;;
56173;SDS011;42058;52.308;20.924;2022-07-23T00:50:09;8.60;;;6.70;;
56173;SDS011;42058;52.308;20.924;2022-07-23T00:52:37;10.13;;;7.33;;
56173;SDS011;42058;52.308;20.924;2022-07-23T00:55:07;17.43;;;7.50;;
56173;SDS011;42058;52.308;20.924;2022-07-23T00:57:36;8.30;;;6.57;;
56173;SDS011;42058;52.308;20.924;2022-07-23T01:00:06;9.57;;;7.33;;
56173;SDS011;42058;52.308;20.924;2022-07-23T01:02:36;8.23;;;7.37;;
56173;SDS011;42058;52.308;20.924;2022-07-23T01:05:03;11.00;;;7.30;;
56173;SDS011;42058;52.308;20.924;2022-07-23T01:07:30;12.07;;;6.63;;
56173;SDS011;42058;52.308;20.924;2022-07-23T01:09:57;11.53;;;7.37;;
56173;SDS011;42058;52.308;20.924;2022-07-23T01:12:24;9.63;;;7.40;;
56173;SDS011;42058;52.308;20.924;2022-07-23T01:14:54;9.23;;;7.30;;
56173;SDS011;42058;52.308;20.924;2022-07-23T01:17:22;9.57;;;7.03;;
56173;SDS011;42058;52.308;20.924;2022-07-23T01:19:48;12.37;;;7.07;;
56173;SDS011;42058;52.308;20.924;2022-07-23T01:22:17;10.10;;;7.07;;
56173;SDS011;42058;52.308;20.924;2022-07-23T01:24:45;8.40;;;6.90;;
56173;SDS011;42058;52.308;20.924;2022-07-23T01:27:12;9.93;;;6.73;;
56173;SDS011;42058;52.308;20.924;2022-07-23T01:29:39;9.27;;;6.67;;
56173;SDS011;42058;52.308;20.924;2022-07-23T01:32:10;12.40;;;7.40;;
56173;SDS011;42058;52.308;20.924;2022-07-23T01:34:38;9.60;;;7.03;;
56173;SDS011;42058;52.308;20.924;2022-07-23T01:37:06;10.97;;;7.40;;
56173;SDS011;42058;52.308;20.924;2022-07-23T01:39:34;9.77;;;7.60;;
56173;SDS011;42058;52.308;20.924;2022-07-23T01:42:01;11.37;;;8.10;;
56173;SDS011;42058;52.308;20.924;2022-07-23T01:44:27;11.27;;;7.87;;
56173;SDS011;42058;52.308;20.924;2022-07-23T01:46:53;11.30;;;8.17;;
56173;SDS011;42058;52.308;20.924;2022-07-23T01:49:21;11.23;;;7.90;;
56173;SDS011;42058;52.308;20.924;2022-07-23T01:52:06;11.00;;;8.27;;
56173;SDS011;42058;52.308;20.924;2022-07-23T01:54:39;10.73;;;8.10;;
56173;SDS011;42058;52.308;20.924;2022-07-23T01:57:06;10.23;;;8.67;;
56173;SDS011;42058;52.308;20.924;2022-07-23T01:59:33;12.87;;;9.13;;
56173;SDS011;42058;52.308;20.924;2022-07-23T02:02:00;11.83;;;8.83;;
56173;SDS011;42058;52.308;20.924;2022-07-23T02:04:30;12.13;;;8.77;;
56173;SDS011;42058;52.308;20.924;2022-07-23T02:06:59;14.30;;;9.10;;
56173;SDS011;42058;52.308;20.924;2022-07-23T02:09:26;11.73;;;9.03;;
56173;SDS011;42058;52.308;20.924;2022-07-23T02:11:52;15.10;;;9.00;;
56173;SDS011;42058;52.308;20.924;2022-07-23T02:14:18;12.47;;;8.67;;
56173;SDS011;42058;52.308;20.924;2022-07-23T02:16:47;14.40;;;9.77;;
56173;SDS011;42058;52.308;20.924;2022-07-23T02:19:14;13.97;;;9.70;;
56173;SDS011;42058;52.308;20.924;2022-07-23T02:21:42;13.73;;;9.17;;
56173;SDS011;42058;52.308;20.924;2022-07-23T02:24:08;15.37;;;9.57;;
56173;SDS011;42058;52.308;20.924;2022-07-23T02:26:34;15.33;;;9.07;;
56173;SDS011;42058;52.308;20.924;2022-07-23T02:29:03;12.87;;;9.23;;
56173;SDS011;42058;52.308;20.924;2022-07-23T02:31:31;12.30;;;8.97;;
56173;SDS011;42058;52.308;20.924;2022-07-23T02:33:58;14.23;;;9.70;;
56173;SDS011;42058;52.308;20.924;2022-07-23T02:36:26;15.47;;;9.77;;
56173;SDS011;42058;52.308;20.924;2022-07-23T02:38:52;16.27;;;9.30;;
56173;SDS011;42058;52.308;20.924;2022-07-23T02:41:20;12.13;;;9.20;;
56173;SDS011;42058;52.308;20.924;2022-07-23T02:43:46;12.13;;;9.00;;
56173;SDS011;42058;52.308;20.924;2022-07-23T02:46:14;11.93;;;8.70;;
56173;SDS011;42058;52.308;20.924;2022-07-23T02:48:40;13.70;;;9.57;;
56173;SDS011;42058;52.308;20.924;2022-07-23T02:51:06;16.70;;;9.37;;
56173;SDS011;42058;52.308;20.924;2022-07-23T02:53:34;12.70;;;9.63;;
56173;SDS011;42058;52.308;20.924;2022-07-23T02:56:01;13.03;;;9.63;;
56173;SDS011;42058;52.308;20.924;2022-07-23T02:58:28;14.47;;;9.90;;
56173;SDS011;42058;52.308;20.924;2022-07-23T03:00:54;11.93;;;8.83;;
56173;SDS011;42058;52.308;20.924;2022-07-23T03:03:20;16.17;;;9.57;;
56173;SDS011;42058;52.308;20.924;2022-07-23T03:05:46;11.47;;;9.33;;
56173;SDS011;42058;52.308;20.924;2022-07-23T03:08:13;13.43;;;10.37;;
56173;SDS011;42058;52.308;20.924;2022-07-23T03:10:42;11.57;;;9.67;;
56173;SDS011;42058;52.308;20.924;2022-07-23T03:13:08;11.27;;;9.23;;
56173;SDS011;42058;52.308;20.924;2022-07-23T03:15:36;14.93;;;10.07;;
56173;SDS011;42058;52.308;20.924;2022-07-23T03:18:03;13.03;;;9.87;;
56173;SDS011;42058;52.308;20.924;2022-07-23T03:20:29;13.63;;;9.87;;
56173;SDS011;42058;52.308;20.924;2022-07-23T03:22:56;11.90;;;9.40;;
56173;SDS011;42058;52.308;20.924;2022-07-23T03:25:22;15.80;;;9.97;;
56173;SDS011;42058;52.308;20.924;2022-07-23T03:27:48;11.33;;;9.93;;
56173;SDS011;42058;52.308;20.924;2022-07-23T03:30:15;12.97;;;9.70;;
56173;SDS011;42058;52.308;20.924;2022-07-23T03:32:41;11.07;;;9.00;;
56173;SDS011;42058;52.308;20.924;2022-07-23T03:35:08;12.87;;;8.83;;
56173;SDS011;42058;52.308;20.924;2022-07-23T03:37:34;13.43;;;9.47;;
56173;SDS011;42058;52.308;20.924;2022-07-23T03:40:00;14.77;;;9.57;;
56173;SDS011;42058;52.308;20.924;2022-07-23T03:42:28;15.80;;;10.37;;
56173;SDS011;42058;52.308;20.924;2022-07-23T03:44:54;12.23;;;9.70;;
56173;SDS011;42058;52.308;20.924;2022-07-23T03:47:20;12.77;;;9.90;;
56173;SDS011;42058;52.308;20.924;2022-07-23T03:49:48;16.13;;;9.90;;
56173;SDS011;42058;52.308;20.924;2022-07-23T03:52:15;13.43;;;10.13;;
56173;SDS011;42058;52.308;20.924;2022-07-23T03:54:43;17.70;;;10.07;;
56173;SDS011;42058;52.308;20.924;2022-07-23T03:57:11;13.97;;;10.40;;
56173;SDS011;42058;52.308;20.924;2022-07-23T03:59:37;15.73;;;10.10;;
56173;SDS011;42058;52.308;20.924;2022-07-23T04:02:06;12.37;;;10.57;;
56173;SDS011;42058;52.308;20.924;2022-07-23T04:04:33;15.03;;;9.93;;
56173;SDS011;42058;52.308;20.924;2022-07-23T04:06:59;14.33;;;10.07;;
56173;SDS011;42058;52.308;20.924;2022-07-23T04:09:29;11.63;;;9.93;;
56173;SDS011;42058;52.308;20.924;2022-07-23T04:11:55;12.37;;;9.87;;
56173;SDS011;42058;52.308;20.924;2022-07-23T04:14:21;17.17;;;10.43;;
56173;SDS011;42058;52.308;20.924;2022-07-23T04:16:47;16.07;;;12.10;;
56173;SDS011;42058;52.308;20.924;2022-07-23T04:19:13;13.87;;;10.77;;
56173;SDS011;42058;52.308;20.924;2022-07-23T04:21:41;13.37;;;10.37;;
56173;SDS011;42058;52.308;20.924;2022-07-23T04:24:09;14.03;;;11.40;;
56173;SDS011;42058;52.308;20.924;2022-07-23T04:26:38;12.33;;;10.17;;
56173;SDS011;42058;52.308;20.924;2022-07-23T04:29:04;15.53;;;11.03;;
56173;SDS011;42058;52.308;20.924;2022-07-23T04:31:31;11.93;;;10.17;;
56173;SDS011;42058;52.308;20.924;2022-07-23T04:33:57;11.67;;;9.87;;
56173;SDS011;42058;52.308;20.924;2022-07-23T04:36:24;15.03;;;10.33;;
56173;SDS011;42058;52.308;20.924;2022-07-23T04:38:51;14.67;;;10.43;;
56173;SDS011;42058;52.308;20.924;2022-07-23T04:41:17;13.00;;;10.40;;
56173;SDS011;42058;52.308;20.924;2022-07-23T04:43:44;12.63;;;10.40;;
56173;SDS011;42058;52.308;20.924;2022-07-23T04:46:12;13.67;;;10.43;;
56173;SDS011;42058;52.308;20.924;2022-07-23T04:48:40;14.63;;;10.47;;
56173;SDS011;42058;52.308;20.924;2022-07-23T04:51:08;16.13;;;11.10;;
56173;SDS011;42058;52.308;20.924;2022-07-23T04:53:36;16.50;;;11.40;;
56173;SDS011;42058;52.308;20.924;2022-07-23T04:56:04;13.10;;;10.73;;
56173;SDS011;42058;52.308;20.924;2022-07-23T04:58:31;17.13;;;10.60;;
56173;SDS011;42058;52.308;20.924;2022-07-23T05:00:57;14.20;;;9.80;;
56173;SDS011;42058;52.308;20.924;2022-07-23T05:03:24;13.37;;;9.97;;
56173;SDS011;42058;52.308;20.924;2022-07-23T05:05:51;18.40;;;10.60;;
56173;SDS011;42058;52.308;20.924;2022-07-23T05:08:17;11.70;;;10.50;;
56173;SDS011;42058;52.308;20.924;2022-07-23T05:10:45;15.43;;;10.07;;
56173;SDS011;42058;52.308;20.924;2022-07-23T05:13:16;13.77;;;11.03;;
56173;SDS011;42058;52.308;20.924;2022-07-23T05:15:46;13.00;;;10.72;;
56173;SDS011;42058;52.308;20.924;2022-07-23T05:18:12;11.90;;;9.93;;
56173;SDS011;42058;52.308;20.924;2022-07-23T05:20:41;11.23;;;9.57;;
56173;SDS011;42058;52.308;20.924;2022-07-23T05:23:07;12.63;;;10.13;;
56173;SDS011;42058;52.308;20.924;2022-07-23T05:25:34;12.53;;;10.43;;
56173;SDS011;42058;52.308;20.924;2022-07-23T05:28:00;10.73;;;9.57;;
56173;SDS011;42058;52.308;20.924;2022-07-23T05:30:27;13.23;;;10.33;;
56173;SDS011;42058;52.308;20.924;2022-07-23T05:32:55;11.93;;;10.23;;
56173;SDS011;42058;52.308;20.924;2022-07-23T05:35:22;12.07;;;10.07;;
56173;SDS011;42058;52.308;20.924;2022-07-23T05:37:51;13.70;;;9.43;;
56173;SDS011;42058;52.308;20.924;2022-07-23T05:40:18;13.57;;;9.67;;
56173;SDS011;42058;52.308;20.924;2022-07-23T05:42:44;12.83;;;10.07;;
56173;SDS011;42058;52.308;20.924;2022-07-23T05:45:11;14.33;;;9.73;;
56173;SDS011;42058;52.308;20.924;2022-07-23T05:47:40;12.20;;;10.03;;
56173;SDS011;42058;52.308;20.924;2022-07-23T05:50:11;13.72;;;9.53;;
56173;SDS011;42058;52.308;20.924;2022-07-23T05:52:42;12.15;;;9.63;;
56173;SDS011;42058;52.308;20.924;2022-07-23T05:55:17;14.73;;;9.73;;
56173;SDS011;42058;52.308;20.924;2022-07-23T05:57:44;12.47;;;9.20;;
56173;SDS011;42058;52.308;20.924;2022-07-23T06:00:12;16.67;;;9.83;;
56173;SDS011;42058;52.308;20.924;2022-07-23T06:02:42;13.97;;;9.47;;
56173;SDS011;42058;52.308;20.924;2022-07-23T06:05:09;10.83;;;8.53;;
56173;SDS011;42058;52.308;20.924;2022-07-23T06:07:37;11.13;;;9.93;;
56173;SDS011;42058;52.308;20.924;2022-07-23T06:10:03;14.47;;;9.10;;
56173;SDS011;42058;52.308;20.924;2022-07-23T06:12:31;11.37;;;9.47;;
56173;SDS011;42058;52.308;20.924;2022-07-23T06:14:57;15.93;;;8.30;;
56173;SDS011;42058;52.308;20.924;2022-07-23T06:17:24;10.43;;;8.70;;
56173;SDS011;42058;52.308;20.924;2022-07-23T06:19:51;11.10;;;8.87;;
56173;SDS011;42058;52.308;20.924;2022-07-23T06:22:19;9.83;;;8.53;;
56173;SDS011;42058;52.308;20.924;2022-07-23T06:24:45;12.83;;;8.27;;
56173;SDS011;42058;52.308;20.924;2022-07-23T06:27:11;11.00;;;8.07;;
56173;SDS011;42058;52.308;20.924;2022-07-23T06:29:38;13.33;;;7.97;;
56173;SDS011;42058;52.308;20.924;2022-07-23T06:32:06;10.50;;;7.70;;
56173;SDS011;42058;52.308;20.924;2022-07-23T06:34:33;10.07;;;8.40;;
56173;SDS011;42058;52.308;20.924;2022-07-23T06:37:01;9.73;;;7.67;;
56173;SDS011;42058;52.308;20.924;2022-07-23T06:39:27;8.63;;;7.13;;
56173;SDS011;42058;52.308;20.924;2022-07-23T06:41:53;10.63;;;7.37;;
56173;SDS011;42058;52.308;20.924;2022-07-23T06:44:22;10.20;;;7.53;;
56173;SDS011;42058;52.308;20.924;2022-07-23T06:46:48;11.43;;;7.23;;
56173;SDS011;42058;52.308;20.924;2022-07-23T06:49:14;7.97;;;6.97;;
56173;SDS011;42058;52.308;20.924;2022-07-23T06:51:40;10.73;;;7.07;;
56173;SDS011;42058;52.308;20.924;2022-07-23T06:54:06;7.97;;;7.03;;
56173;SDS011;42058;52.308;20.924;2022-07-23T06:56:33;8.20;;;7.37;;
56173;SDS011;42058;52.308;20.924;2022-07-23T06:58:59;8.70;;;6.70;;
56173;SDS011;42058;52.308;20.924;2022-07-23T07:01:25;9.47;;;6.97;;
56173;SDS011;42058;52.308;20.924;2022-07-23T07:03:52;7.87;;;6.77;;
56173;SDS011;42058;52.308;20.924;2022-07-23T07:06:19;9.30;;;6.67;;
56173;SDS011;42058;52.308;20.924;2022-07-23T07:08:45;7.53;;;6.80;;
56173;SDS011;42058;52.308;20.924;2022-07-23T07:11:11;7.30;;;6.53;;
56173;SDS011;42058;52.308;20.924;2022-07-23T07:13:37;8.53;;;6.43;;
56173;SDS011;42058;52.308;20.924;2022-07-23T07:16:04;6.37;;;5.77;;
56173;SDS011;42058;52.308;20.924;2022-07-23T07:18:30;8.77;;;6.00;;
56173;SDS011;42058;52.308;20.924;2022-07-23T07:20:57;6.50;;;5.90;;
56173;SDS011;42058;52.308;20.924;2022-07-23T07:23:23;8.93;;;5.47;;
56173;SDS011;42058;52.308;20.924;2022-07-23T07:25:52;6.07;;;5.50;;
56173;SDS011;42058;52.308;20.924;2022-07-23T07:28:18;6.37;;;5.40;;
56173;SDS011;42058;52.308;20.924;2022-07-23T07:30:45;7.40;;;5.77;;
56173;SDS011;42058;52.308;20.924;2022-07-23T07:33:11;5.83;;;5.33;;
56173;SDS011;42058;52.308;20.924;2022-07-23T07:35:37;5.83;;;5.33;;
56173;SDS011;42058;52.308;20.924;2022-07-23T07:38:03;8.27;;;5.77;;
56173;SDS011;42058;52.308;20.924;2022-07-23T07:40:29;7.20;;;5.73;;
56173;SDS011;42058;52.308;20.924;2022-07-23T07:42:55;7.20;;;5.37;;
56173;SDS011;42058;52.308;20.924;2022-07-23T07:45:22;8.87;;;6.07;;
56173;SDS011;42058;52.308;20.924;2022-07-23T07:47:51;6.23;;;5.63;;
56173;SDS011;42058;52.308;20.924;2022-07-23T07:50:19;5.93;;;5.30;;
56173;SDS011;42058;52.308;20.924;2022-07-23T07:52:46;6.53;;;5.40;;
56173;SDS011;42058;52.308;20.924;2022-07-23T07:55:12;6.03;;;5.33;;
56173;SDS011;42058;52.308;20.924;2022-07-23T07:57:39;5.73;;;5.17;;
56173;SDS011;42058;52.308;20.924;2022-07-23T08:00:07;10.70;;;5.20;;
56173;SDS011;42058;52.308;20.924;2022-07-23T08:02:42;9.68;;;5.08;;
56173;SDS011;42058;52.308;20.924;2022-07-23T08:05:13;6.97;;;5.10;;
56173;SDS011;42058;52.308;20.924;2022-07-23T08:07:40;5.53;;;5.00;;
56173;SDS011;42058;52.308;20.924;2022-07-23T08:10:07;6.17;;;5.57;;
56173;SDS011;42058;52.308;20.924;2022-07-23T08:12:39;6.08;;;5.22;;
56173;SDS011;42058;52.308;20.924;2022-07-23T08:15:10;7.12;;;5.30;;
56173;SDS011;42058;52.308;20.924;2022-07-23T08:17:38;5.72;;;5.12;;
56173;SDS011;42058;52.308;20.924;2022-07-23T08:20:05;5.85;;;5.25;;
56173;SDS011;42058;52.308;20.924;2022-07-23T08:23:06;5.92;;;5.42;;
56173;SDS011;42058;52.308;20.924;2022-07-23T08:25:11;5.83;;;5.33;;
56173;SDS011;42058;52.308;20.924;2022-07-23T08:27:39;7.85;;;5.00;;
56173;SDS011;42058;52.308;20.924;2022-07-23T08:30:05;8.90;;;5.83;;
56173;SDS011;42058;52.308;20.924;2022-07-23T08:32:32;8.18;;;5.17;;
56173;SDS011;42058;52.308;20.924;2022-07-23T08:34:58;5.85;;;4.97;;
56173;SDS011;42058;52.308;20.924;2022-07-23T08:37:24;8.73;;;4.80;;
56173;SDS011;42058;52.308;20.924;2022-07-23T08:39:50;5.70;;;4.67;;
56173;SDS011;42058;52.308;20.924;2022-07-23T08:42:16;8.00;;;5.28;;
56173;SDS011;42058;52.308;20.924;2022-07-23T08:44:45;6.08;;;5.15;;
56173;SDS011;42058;52.308;20.924;2022-07-23T08:47:12;6.10;;;4.80;;
56173;SDS011;42058;52.308;20.924;2022-07-23T08:49:39;5.83;;;5.22;;
56173;SDS011;42058;52.308;20.924;2022-07-23T08:52:06;5.35;;;4.78;;
56173;SDS011;42058;52.308;20.924;2022-07-23T08:54:33;8.70;;;4.75;;
56173;SDS011;42058;52.308;20.924;2022-07-23T08:57:00;5.15;;;4.62;;
56173;SDS011;42058;52.308;20.924;2022-07-23T08:59:26;7.35;;;4.62;;
56173;SDS011;42058;52.308;20.924;2022-07-23T09:01:53;6.15;;;5.00;;
56173;SDS011;42058;52.308;20.924;2022-07-23T09:04:19;7.70;;;4.80;;
56173;SDS011;42058;52.308;20.924;2022-07-23T09:06:45;4.67;;;4.28;;
56173;SDS011;42058;52.308;20.924;2022-07-23T09:09:20;5.08;;;4.60;;
56173;SDS011;42058;52.308;20.924;2022-07-23T09:11:47;5.08;;;4.20;;
56173;SDS011;42058;52.308;20.924;2022-07-23T09:14:18;6.45;;;4.20;;
56173;SDS011;42058;52.308;20.924;2022-07-23T09:16:49;5.08;;;4.60;;
56173;SDS011;42058;52.308;20.924;2022-07-23T09:19:16;6.55;;;4.72;;
56173;SDS011;42058;52.308;20.924;2022-07-23T09:21:49;5.62;;;4.58;;
56173;SDS011;42058;52.308;20.924;2022-07-23T09:24:15;5.33;;;4.83;;
56173;SDS011;42058;52.308;20.924;2022-07-23T09:26:44;5.12;;;4.65;;
56173;SDS011;42058;52.308;20.924;2022-07-23T09:29:19;6.30;;;4.35;;
56173;SDS011;42058;52.308;20.924;2022-07-23T09:31:54;6.62;;;4.65;;
56173;SDS011;42058;52.308;20.924;2022-07-23T09:34:34;5.15;;;4.65;;
56173;SDS011;42058;52.308;20.924;2022-07-23T09:37:15;7.78;;;4.83;;
56173;SDS011;42058;52.308;20.924;2022-07-23T09:39:45;8.63;;;4.40;;
56173;SDS011;42058;52.308;20.924;2022-07-23T09:42:21;6.72;;;4.70;;
56173;SDS011;42058;52.308;20.924;2022-07-23T09:44:51;5.90;;;4.37;;
56173;SDS011;42058;52.308;20.924;2022-07-23T09:47:20;7.60;;;4.20;;
56173;SDS011;42058;52.308;20.924;2022-07-23T09:50:08;5.17;;;4.20;;
56173;SDS011;42058;52.308;20.924;2022-07-23T09:52:44;4.70;;;4.30;;
56173;SDS011;42058;52.308;20.924;2022-07-23T09:55:14;5.90;;;4.40;;
56173;SDS011;42058;52.308;20.924;2022-07-23T09:57:42;6.80;;;4.58;;
56173;SDS011;42058;52.308;20.924;2022-07-23T10:00:11;4.78;;;4.30;;
56173;SDS011;42058;52.308;20.924;2022-07-23T10:02:39;4.83;;;4.33;;
56173;SDS011;42058;52.308;20.924;2022-07-23T10:05:25;4.85;;;4.22;;
56173;SDS011;42058;52.308;20.924;2022-07-23T10:08:11;4.92;;;3.95;;
56173;SDS011;42058;52.308;20.924;2022-07-23T10:10:58;5.10;;;4.40;;
56173;SDS011;42058;52.308;20.924;2022-07-23T10:13:28;11.33;;;4.70;;
56173;SDS011;42058;52.308;20.924;2022-07-23T10:16:13;6.53;;;4.53;;
56173;SDS011;42058;52.308;20.924;2022-07-23T10:18:42;5.03;;;4.35;;
56173;SDS011;42058;52.308;20.924;2022-07-23T10:21:08;7.22;;;4.40;;
56173;SDS011;42058;52.308;20.924;2022-07-23T10:23:40;5.55;;;3.80;;
56173;SDS011;42058;52.308;20.924;2022-07-23T10:26:17;5.78;;;4.30;;
56173;SDS011;42058;52.308;20.924;2022-07-23T10:29:15;5.28;;;4.35;;
56173;SDS011;42058;52.308;20.924;2022-07-23T10:31:52;6.95;;;4.78;;
56173;SDS011;42058;52.308;20.924;2022-07-23T10:37:44;7.62;;;4.40;;
56173;SDS011;42058;52.308;20.924;2022-07-23T10:40:20;6.30;;;4.30;;
56173;SDS011;42058;52.308;20.924;2022-07-23T10:42:49;9.85;;;4.80;;
56173;SDS011;42058;52.308;20.924;2022-07-23T10:48:16;4.55;;;4.12;;
56173;SDS011;42058;52.308;20.924;2022-07-23T10:59:22;4.55;;;4.12;;
56173;SDS011;42058;52.308;20.924;2022-07-23T11:01:49;4.58;;;4.17;;
56173;SDS011;42058;52.308;20.924;2022-07-23T11:04:16;5.60;;;4.37;;
56173;SDS011;42058;52.308;20.924;2022-07-23T11:09:26;4.47;;;4.00;;
56173;SDS011;42058;52.308;20.924;2022-07-23T11:15:07;4.58;;;3.80;;
56173;SDS011;42058;52.308;20.924;2022-07-23T11:20:21;4.00;;;3.67;;
56173;SDS011;42058;52.308;20.924;2022-07-23T11:22:54;4.70;;;4.15;;
56173;SDS011;42058;52.308;20.924;2022-07-23T11:35:47;7.80;;;4.30;;
56173;SDS011;42058;52.308;20.924;2022-07-23T11:40:46;5.25;;;4.00;;
56173;SDS011;42058;52.308;20.924;2022-07-23T11:43:18;4.58;;;4.17;;
56173;SDS011;42058;52.308;20.924;2022-07-23T11:45:45;5.80;;;4.40;;
56173;SDS011;42058;52.308;20.924;2022-07-23T11:48:20;6.22;;;4.25;;
56173;SDS011;42058;52.308;20.924;2022-07-23T11:50:49;4.60;;;3.98;;
56173;SDS011;42058;52.308;20.924;2022-07-23T11:53:23;4.90;;;4.22;;
56173;SDS011;42058;52.308;20.924;2022-07-23T11:58:35;4.97;;;4.08;;
56173;SDS011;42058;52.308;20.924;2022-07-23T12:01:02;6.28;;;4.30;;
56173;SDS011;42058;52.308;20.924;2022-07-23T12:03:29;7.75;;;4.90;;
56173;SDS011;42058;52.308;20.924;2022-07-23T12:05:56;5.75;;;4.35;;
56173;SDS011;42058;52.308;20.924;2022-07-23T12:08:24;4.92;;;4.15;;
56173;SDS011;42058;52.308;20.924;2022-07-23T12:10:50;4.53;;;4.05;;
56173;SDS011;42058;52.308;20.924;2022-07-23T12:13:17;4.80;;;4.28;;
56173;SDS011;42058;52.308;20.924;2022-07-23T12:15:51;4.47;;;4.08;;
56173;SDS011;42058;52.308;20.924;2022-07-23T12:18:19;5.37;;;4.10;;
56173;SDS011;42058;52.308;20.924;2022-07-23T12:20:49;8.00;;;4.17;;
56173;SDS011;42058;52.308;20.924;2022-07-23T12:23:18;4.25;;;3.85;;
56173;SDS011;42058;52.308;20.924;2022-07-23T12:25:47;6.45;;;4.08;;
56173;SDS011;42058;52.308;20.924;2022-07-23T12:28:16;5.53;;;4.10;;
56173;SDS011;42058;52.308;20.924;2022-07-23T12:30:46;5.12;;;4.53;;
56173;SDS011;42058;52.308;20.924;2022-07-23T12:33:31;7.30;;;4.10;;
56173;SDS011;42058;52.308;20.924;2022-07-23T12:35:58;6.22;;;4.03;;
56173;SDS011;42058;52.308;20.924;2022-07-23T12:38:35;4.70;;;4.03;;
56173;SDS011;42058;52.308;20.924;2022-07-23T12:41:07;5.75;;;4.35;;
56173;SDS011;42058;52.308;20.924;2022-07-23T12:43:38;4.80;;;4.20;;
56173;SDS011;42058;52.308;20.924;2022-07-23T12:46:07;5.12;;;4.22;;
56173;SDS011;42058;52.308;20.924;2022-07-23T12:48:37;6.95;;;4.50;;
56173;SDS011;42058;52.308;20.924;2022-07-23T12:51:21;8.23;;;4.50;;
56173;SDS011;42058;52.308;20.924;2022-07-23T12:53:48;5.53;;;4.28;;
56173;SDS011;42058;52.308;20.924;2022-07-23T12:56:21;6.15;;;4.08;;
56173;SDS011;42058;52.308;20.924;2022-07-23T13:01:36;4.62;;;4.25;;
56173;SDS011;42058;52.308;20.924;2022-07-23T13:04:13;5.17;;;4.12;;
56173;SDS011;42058;52.308;20.924;2022-07-23T13:06:48;4.73;;;4.33;;
56173;SDS011;42058;52.308;20.924;2022-07-23T13:09:19;4.95;;;4.22;;
56173;SDS011;42058;52.308;20.924;2022-07-23T13:11:49;4.75;;;3.67;;
56173;SDS011;42058;52.308;20.924;2022-07-23T13:14:18;6.42;;;4.05;;
56173;SDS011;42058;52.308;20.924;2022-07-23T13:16:46;4.53;;;4.10;;
56173;SDS011;42058;52.308;20.924;2022-07-23T13:19:16;5.35;;;4.25;;
56173;SDS011;42058;52.308;20.924;2022-07-23T13:21:43;6.62;;;4.40;;
56173;SDS011;42058;52.308;20.924;2022-07-23T13:24:09;4.80;;;4.40;;
56173;SDS011;42058;52.308;20.924;2022-07-23T13:26:38;4.72;;;4.20;;
56173;SDS011;42058;52.308;20.924;2022-07-23T13:29:05;5.05;;;4.15;;
56173;SDS011;42058;52.308;20.924;2022-07-23T13:31:32;5.22;;;4.10;;
56173;SDS011;42058;52.308;20.924;2022-07-23T13:33:58;6.80;;;4.37;;
56173;SDS011;42058;52.308;20.924;2022-07-23T13:36:25;7.45;;;4.22;;
56173;SDS011;42058;52.308;20.924;2022-07-23T13:38:51;8.78;;;4.70;;
56173;SDS011;42058;52.308;20.924;2022-07-23T13:41:18;4.70;;;4.22;;
56173;SDS011;42058;52.308;20.924;2022-07-23T13:43:44;5.35;;;4.85;;
56173;SDS011;42058;52.308;20.924;2022-07-23T13:46:10;4.62;;;4.22;;
56173;SDS011;42058;52.308;20.924;2022-07-23T13:48:37;5.35;;;4.05;;
56173;SDS011;42058;52.308;20.924;2022-07-23T13:51:03;8.25;;;4.50;;
56173;SDS011;42058;52.308;20.924;2022-07-23T13:53:29;6.47;;;5.10;;
56173;SDS011;42058;52.308;20.924;2022-07-23T13:55:55;6.53;;;4.97;;
56173;SDS011;42058;52.308;20.924;2022-07-23T13:58:22;6.45;;;4.92;;
56173;SDS011;42058;52.308;20.924;2022-07-23T14:00:50;5.20;;;4.67;;
56173;SDS011;42058;52.308;20.924;2022-07-23T14:03:19;5.42;;;4.67;;
56173;SDS011;42058;52.308;20.924;2022-07-23T14:05:51;6.80;;;4.40;;
56173;SDS011;42058;52.308;20.924;2022-07-23T14:08:18;5.83;;;4.37;;
56173;SDS011;42058;52.308;20.924;2022-07-23T14:10:45;7.58;;;4.92;;
56173;SDS011;42058;52.308;20.924;2022-07-23T14:13:11;5.12;;;4.37;;
56173;SDS011;42058;52.308;20.924;2022-07-23T14:15:37;5.12;;;4.50;;
56173;SDS011;42058;52.308;20.924;2022-07-23T14:18:05;6.47;;;4.55;;
56173;SDS011;42058;52.308;20.924;2022-07-23T14:20:32;5.45;;;4.50;;
56173;SDS011;42058;52.308;20.924;2022-07-23T14:22:59;4.90;;;4.40;;
56173;SDS011;42058;52.308;20.924;2022-07-23T14:25:26;4.80;;;4.35;;
56173;SDS011;42058;52.308;20.924;2022-07-23T14:27:53;8.10;;;5.03;;
56173;SDS011;42058;52.308;20.924;2022-07-23T14:30:19;7.50;;;4.70;;
56173;SDS011;42058;52.308;20.924;2022-07-23T14:32:45;8.00;;;5.00;;
56173;SDS011;42058;52.308;20.924;2022-07-23T14:35:11;5.03;;;4.28;;
56173;SDS011;42058;52.308;20.924;2022-07-23T14:37:38;9.13;;;4.90;;
56173;SDS011;42058;52.308;20.924;2022-07-23T14:40:06;14.65;;;4.20;;
56173;SDS011;42058;52.308;20.924;2022-07-23T14:42:32;19.50;;;4.00;;
56173;SDS011;42058;52.308;20.924;2022-07-23T14:44:58;9.25;;;3.35;;
56173;SDS011;42058;52.308;20.924;2022-07-23T14:47:24;14.83;;;3.80;;
56173;SDS011;42058;52.308;20.924;2022-07-23T14:49:50;9.50;;;3.47;;
56173;SDS011;42058;52.308;20.924;2022-07-23T14:52:16;6.60;;;3.85;;
56173;SDS011;42058;52.308;20.924;2022-07-23T14:54:43;8.63;;;4.10;;
56173;SDS011;42058;52.308;20.924;2022-07-23T14:57:09;8.70;;;3.87;;
56173;SDS011;42058;52.308;20.924;2022-07-23T14:59:35;10.88;;;4.67;;
56173;SDS011;42058;52.308;20.924;2022-07-23T15:02:01;15.58;;;5.00;;
56173;SDS011;42058;52.308;20.924;2022-07-23T15:04:27;22.77;;;5.60;;
56173;SDS011;42058;52.308;20.924;2022-07-23T15:06:53;17.57;;;6.13;;
56173;SDS011;42058;52.308;20.924;2022-07-23T15:09:20;20.10;;;6.07;;
56173;SDS011;42058;52.308;20.924;2022-07-23T15:11:46;12.97;;;5.50;;
56173;SDS011;42058;52.308;20.924;2022-07-23T15:14:13;11.90;;;5.50;;
56173;SDS011;42058;52.308;20.924;2022-07-23T15:16:39;7.73;;;4.83;;